sensor_id;sensor_type;location;lat;lon;timestamp;P1;durP1;ratioP1;P2;durP2;ratioP2
13805;SDS011;6974;53.606;9.872;2023-07-08T00:00:38;6.97;;;4.83;;
13805;SDS011;6974;53.606;9.872;2023-07-08T00:03:05;6.77;;;5.17;;
13805;SDS011;6974;53.606;9.872;2023-07-08T00:05:32;6.00;;;4.63;;
13805;SDS011;6974;53.606;9.872;2023-07-08T00:07:59;6.07;;;4.77;;
13805;SDS011;6974;53.606;9.872;2023-07-08T00:10:26;4.97;;;4.40;;
13805;SDS011;6974;53.606;9.872;2023-07-08T00:12:54;6.90;;;5.33;;
13805;SDS011;6974;53.606;9.872;2023-07-08T00:15:24;7.70;;;5.20;;
13805;SDS011;6974;53.606;9.872;2023-07-08T00:17:54;7.30;;;4.90;;
13805;SDS011;6974;53.606;9.872;2023-07-08T00:20:22;5.40;;;4.90;;
13805;SDS011;6974;53.606;9.872;2023-07-08T00:22:54;5.37;;;4.73;;
13805;SDS011;6974;53.606;9.872;2023-07-08T00:25:22;5.17;;;4.63;;
13805;SDS011;6974;53.606;9.872;2023-07-08T00:27:48;6.73;;;4.97;;
13805;SDS011;6974;53.606;9.872;2023-07-08T00:30:22;5.00;;;4.60;;
13805;SDS011;6974;53.606;9.872;2023-07-08T00:32:50;6.37;;;4.70;;
13805;SDS011;6974;53.606;9.872;2023-07-08T00:35:24;6.87;;;5.03;;
13805;SDS011;6974;53.606;9.872;2023-07-08T00:37:56;5.67;;;5.03;;
13805;SDS011;6974;53.606;9.872;2023-07-08T00:40:26;6.27;;;4.77;;
13805;SDS011;6974;53.606;9.872;2023-07-08T00:42:55;5.00;;;4.37;;
13805;SDS011;6974;53.606;9.872;2023-07-08T00:45:29;5.30;;;4.80;;
13805;SDS011;6974;53.606;9.872;2023-07-08T00:48:05;6.73;;;5.50;;
13805;SDS011;6974;53.606;9.872;2023-07-08T00:50:43;7.53;;;5.37;;
13805;SDS011;6974;53.606;9.872;2023-07-08T00:53:20;6.23;;;5.03;;
13805;SDS011;6974;53.606;9.872;2023-07-08T00:55:49;5.63;;;5.07;;
13805;SDS011;6974;53.606;9.872;2023-07-08T00:58:17;6.77;;;5.30;;
13805;SDS011;6974;53.606;9.872;2023-07-08T01:00:47;5.60;;;5.10;;
13805;SDS011;6974;53.606;9.872;2023-07-08T01:03:15;5.53;;;4.70;;
13805;SDS011;6974;53.606;9.872;2023-07-08T01:05:45;5.23;;;4.70;;
13805;SDS011;6974;53.606;9.872;2023-07-08T01:08:13;5.40;;;4.90;;
13805;SDS011;6974;53.606;9.872;2023-07-08T01:10:42;5.73;;;4.93;;
13805;SDS011;6974;53.606;9.872;2023-07-08T01:13:12;8.03;;;5.13;;
13805;SDS011;6974;53.606;9.872;2023-07-08T01:15:41;5.20;;;4.70;;
13805;SDS011;6974;53.606;9.872;2023-07-08T01:18:12;6.37;;;5.10;;
13805;SDS011;6974;53.606;9.872;2023-07-08T01:20:41;7.33;;;5.23;;
13805;SDS011;6974;53.606;9.872;2023-07-08T01:23:10;5.87;;;5.33;;
13805;SDS011;6974;53.606;9.872;2023-07-08T01:25:37;6.27;;;5.30;;
13805;SDS011;6974;53.606;9.872;2023-07-08T01:28:05;7.20;;;5.30;;
13805;SDS011;6974;53.606;9.872;2023-07-08T01:30:32;5.63;;;5.03;;
13805;SDS011;6974;53.606;9.872;2023-07-08T01:33:00;5.30;;;4.80;;
13805;SDS011;6974;53.606;9.872;2023-07-08T01:35:30;7.47;;;4.67;;
13805;SDS011;6974;53.606;9.872;2023-07-08T01:37:57;6.77;;;5.40;;
13805;SDS011;6974;53.606;9.872;2023-07-08T01:40:28;7.80;;;5.23;;
13805;SDS011;6974;53.606;9.872;2023-07-08T01:42:57;8.03;;;5.47;;
13805;SDS011;6974;53.606;9.872;2023-07-08T01:45:25;6.70;;;5.20;;
13805;SDS011;6974;53.606;9.872;2023-07-08T01:47:56;6.17;;;5.23;;
13805;SDS011;6974;53.606;9.872;2023-07-08T01:50:25;6.60;;;5.23;;
13805;SDS011;6974;53.606;9.872;2023-07-08T01:52:53;6.53;;;5.43;;
13805;SDS011;6974;53.606;9.872;2023-07-08T01:55:23;7.93;;;5.33;;
13805;SDS011;6974;53.606;9.872;2023-07-08T01:57:52;6.03;;;5.43;;
13805;SDS011;6974;53.606;9.872;2023-07-08T02:00:19;8.00;;;5.63;;
13805;SDS011;6974;53.606;9.872;2023-07-08T02:02:47;7.07;;;5.40;;
13805;SDS011;6974;53.606;9.872;2023-07-08T02:05:14;5.77;;;5.17;;
13805;SDS011;6974;53.606;9.872;2023-07-08T02:07:41;5.93;;;5.37;;
13805;SDS011;6974;53.606;9.872;2023-07-08T02:10:08;6.30;;;5.57;;
13805;SDS011;6974;53.606;9.872;2023-07-08T02:12:35;5.63;;;5.13;;
13805;SDS011;6974;53.606;9.872;2023-07-08T02:15:04;6.27;;;5.43;;
13805;SDS011;6974;53.606;9.872;2023-07-08T02:17:31;6.27;;;5.60;;
13805;SDS011;6974;53.606;9.872;2023-07-08T02:19:59;6.07;;;5.47;;
13805;SDS011;6974;53.606;9.872;2023-07-08T02:22:25;7.37;;;5.60;;
13805;SDS011;6974;53.606;9.872;2023-07-08T02:24:52;7.70;;;5.60;;
13805;SDS011;6974;53.606;9.872;2023-07-08T02:27:19;7.57;;;6.10;;
13805;SDS011;6974;53.606;9.872;2023-07-08T02:29:46;6.53;;;5.60;;
13805;SDS011;6974;53.606;9.872;2023-07-08T02:32:14;6.37;;;5.73;;
13805;SDS011;6974;53.606;9.872;2023-07-08T02:34:41;6.00;;;5.30;;
13805;SDS011;6974;53.606;9.872;2023-07-08T02:37:08;6.27;;;5.67;;
13805;SDS011;6974;53.606;9.872;2023-07-08T02:39:35;6.50;;;5.77;;
13805;SDS011;6974;53.606;9.872;2023-07-08T02:42:02;6.97;;;6.10;;
13805;SDS011;6974;53.606;9.872;2023-07-08T02:44:29;6.53;;;5.87;;
13805;SDS011;6974;53.606;9.872;2023-07-08T02:46:56;6.93;;;5.67;;
13805;SDS011;6974;53.606;9.872;2023-07-08T02:49:24;6.60;;;6.00;;
13805;SDS011;6974;53.606;9.872;2023-07-08T02:51:51;6.97;;;5.83;;
13805;SDS011;6974;53.606;9.872;2023-07-08T02:54:17;6.23;;;5.63;;
13805;SDS011;6974;53.606;9.872;2023-07-08T02:56:44;6.47;;;5.87;;
13805;SDS011;6974;53.606;9.872;2023-07-08T02:59:11;5.90;;;5.27;;
13805;SDS011;6974;53.606;9.872;2023-07-08T03:01:38;6.17;;;5.47;;
13805;SDS011;6974;53.606;9.872;2023-07-08T03:04:07;7.43;;;5.03;;
13805;SDS011;6974;53.606;9.872;2023-07-08T03:06:39;6.07;;;5.47;;
13805;SDS011;6974;53.606;9.872;2023-07-08T03:09:06;6.20;;;5.50;;
13805;SDS011;6974;53.606;9.872;2023-07-08T03:11:33;6.03;;;5.43;;
13805;SDS011;6974;53.606;9.872;2023-07-08T03:14:00;7.83;;;5.67;;
13805;SDS011;6974;53.606;9.872;2023-07-08T03:16:27;8.17;;;6.67;;
13805;SDS011;6974;53.606;9.872;2023-07-08T03:18:54;6.10;;;5.50;;
13805;SDS011;6974;53.606;9.872;2023-07-08T03:21:21;6.40;;;5.70;;
13805;SDS011;6974;53.606;9.872;2023-07-08T03:23:49;6.40;;;5.80;;
13805;SDS011;6974;53.606;9.872;2023-07-08T03:26:17;6.10;;;5.50;;
13805;SDS011;6974;53.606;9.872;2023-07-08T03:28:46;6.03;;;5.53;;
13805;SDS011;6974;53.606;9.872;2023-07-08T03:31:13;6.60;;;5.90;;
13805;SDS011;6974;53.606;9.872;2023-07-08T03:33:41;7.43;;;5.83;;
13805;SDS011;6974;53.606;9.872;2023-07-08T03:36:09;9.23;;;5.97;;
13805;SDS011;6974;53.606;9.872;2023-07-08T03:38:48;8.00;;;6.07;;
13805;SDS011;6974;53.606;9.872;2023-07-08T03:41:16;7.47;;;6.00;;
13805;SDS011;6974;53.606;9.872;2023-07-08T03:43:43;7.23;;;5.77;;
13805;SDS011;6974;53.606;9.872;2023-07-08T03:46:10;6.27;;;5.27;;
13805;SDS011;6974;53.606;9.872;2023-07-08T03:48:37;7.27;;;5.83;;
13805;SDS011;6974;53.606;9.872;2023-07-08T03:51:04;6.20;;;5.60;;
13805;SDS011;6974;53.606;9.872;2023-07-08T03:53:35;6.33;;;5.77;;
13805;SDS011;6974;53.606;9.872;2023-07-08T03:56:04;6.23;;;5.47;;
13805;SDS011;6974;53.606;9.872;2023-07-08T03:58:30;6.87;;;5.93;;
13805;SDS011;6974;53.606;9.872;2023-07-08T04:00:57;5.80;;;5.07;;
13805;SDS011;6974;53.606;9.872;2023-07-08T04:03:24;6.20;;;5.67;;
13805;SDS011;6974;53.606;9.872;2023-07-08T04:05:51;6.13;;;5.53;;
13805;SDS011;6974;53.606;9.872;2023-07-08T04:08:18;5.50;;;5.00;;
13805;SDS011;6974;53.606;9.872;2023-07-08T04:10:45;5.73;;;5.23;;
13805;SDS011;6974;53.606;9.872;2023-07-08T04:13:13;5.87;;;5.20;;
13805;SDS011;6974;53.606;9.872;2023-07-08T04:15:40;6.47;;;5.30;;
13805;SDS011;6974;53.606;9.872;2023-07-08T04:18:06;5.67;;;4.90;;
13805;SDS011;6974;53.606;9.872;2023-07-08T04:20:33;6.67;;;5.33;;
13805;SDS011;6974;53.606;9.872;2023-07-08T04:23:00;5.73;;;5.23;;
13805;SDS011;6974;53.606;9.872;2023-07-08T04:25:27;5.53;;;4.90;;
13805;SDS011;6974;53.606;9.872;2023-07-08T04:27:54;5.83;;;5.23;;
13805;SDS011;6974;53.606;9.872;2023-07-08T04:30:23;6.40;;;5.50;;
13805;SDS011;6974;53.606;9.872;2023-07-08T04:32:51;5.30;;;4.80;;
13805;SDS011;6974;53.606;9.872;2023-07-08T04:35:18;5.10;;;4.70;;
13805;SDS011;6974;53.606;9.872;2023-07-08T04:37:45;6.33;;;4.93;;
13805;SDS011;6974;53.606;9.872;2023-07-08T04:40:14;8.20;;;5.17;;
13805;SDS011;6974;53.606;9.872;2023-07-08T04:42:45;5.20;;;4.80;;
13805;SDS011;6974;53.606;9.872;2023-07-08T04:45:13;5.33;;;4.73;;
13805;SDS011;6974;53.606;9.872;2023-07-08T04:47:43;5.50;;;5.00;;
13805;SDS011;6974;53.606;9.872;2023-07-08T04:50:17;6.77;;;4.50;;
13805;SDS011;6974;53.606;9.872;2023-07-08T04:52:44;5.10;;;4.60;;
13805;SDS011;6974;53.606;9.872;2023-07-08T04:55:11;5.57;;;4.60;;
13805;SDS011;6974;53.606;9.872;2023-07-08T04:57:39;5.70;;;4.77;;
13805;SDS011;6974;53.606;9.872;2023-07-08T05:00:06;4.70;;;4.20;;
13805;SDS011;6974;53.606;9.872;2023-07-08T05:02:35;5.33;;;4.80;;
13805;SDS011;6974;53.606;9.872;2023-07-08T05:05:04;6.27;;;4.43;;
13805;SDS011;6974;53.606;9.872;2023-07-08T05:07:31;7.17;;;4.60;;
13805;SDS011;6974;53.606;9.872;2023-07-08T05:09:58;4.97;;;4.57;;
13805;SDS011;6974;53.606;9.872;2023-07-08T05:12:25;5.30;;;4.80;;
13805;SDS011;6974;53.606;9.872;2023-07-08T05:14:52;6.57;;;4.73;;
13805;SDS011;6974;53.606;9.872;2023-07-08T05:17:19;6.03;;;4.47;;
13805;SDS011;6974;53.606;9.872;2023-07-08T05:19:46;6.07;;;4.50;;
13805;SDS011;6974;53.606;9.872;2023-07-08T05:22:17;5.90;;;4.40;;
13805;SDS011;6974;53.606;9.872;2023-07-08T05:24:50;5.20;;;4.70;;
13805;SDS011;6974;53.606;9.872;2023-07-08T05:27:17;6.17;;;4.77;;
13805;SDS011;6974;53.606;9.872;2023-07-08T05:29:45;4.77;;;4.33;;
13805;SDS011;6974;53.606;9.872;2023-07-08T05:32:12;7.10;;;4.77;;
13805;SDS011;6974;53.606;9.872;2023-07-08T05:34:39;5.77;;;4.40;;
13805;SDS011;6974;53.606;9.872;2023-07-08T05:37:06;4.93;;;4.53;;
13805;SDS011;6974;53.606;9.872;2023-07-08T05:39:34;6.63;;;3.90;;
13805;SDS011;6974;53.606;9.872;2023-07-08T05:42:01;5.00;;;4.27;;
13805;SDS011;6974;53.606;9.872;2023-07-08T05:44:28;5.27;;;4.50;;
13805;SDS011;6974;53.606;9.872;2023-07-08T05:46:55;6.17;;;4.00;;
13805;SDS011;6974;53.606;9.872;2023-07-08T05:49:22;4.07;;;3.57;;
13805;SDS011;6974;53.606;9.872;2023-07-08T05:51:48;6.50;;;4.77;;
13805;SDS011;6974;53.606;9.872;2023-07-08T05:54:16;6.07;;;4.90;;
13805;SDS011;6974;53.606;9.872;2023-07-08T05:56:44;6.73;;;4.47;;
13805;SDS011;6974;53.606;9.872;2023-07-08T05:59:11;4.27;;;3.87;;
13805;SDS011;6974;53.606;9.872;2023-07-08T06:01:38;4.87;;;3.90;;
13805;SDS011;6974;53.606;9.872;2023-07-08T06:04:05;4.97;;;3.90;;
13805;SDS011;6974;53.606;9.872;2023-07-08T06:06:31;4.60;;;4.20;;
13805;SDS011;6974;53.606;9.872;2023-07-08T06:08:58;7.93;;;4.00;;
13805;SDS011;6974;53.606;9.872;2023-07-08T06:11:26;4.07;;;3.67;;
13805;SDS011;6974;53.606;9.872;2023-07-08T06:13:54;5.20;;;4.10;;
13805;SDS011;6974;53.606;9.872;2023-07-08T06:16:23;4.90;;;3.70;;
13805;SDS011;6974;53.606;9.872;2023-07-08T06:18:50;4.37;;;3.80;;
13805;SDS011;6974;53.606;9.872;2023-07-08T06:21:16;5.80;;;4.17;;
13805;SDS011;6974;53.606;9.872;2023-07-08T06:23:43;3.87;;;3.47;;
13805;SDS011;6974;53.606;9.872;2023-07-08T06:26:10;3.93;;;3.60;;
13805;SDS011;6974;53.606;9.872;2023-07-08T06:28:37;4.07;;;3.47;;
13805;SDS011;6974;53.606;9.872;2023-07-08T06:31:05;4.40;;;3.80;;
13805;SDS011;6974;53.606;9.872;2023-07-08T06:33:32;5.97;;;3.83;;
13805;SDS011;6974;53.606;9.872;2023-07-08T06:35:59;4.27;;;3.63;;
13805;SDS011;6974;53.606;9.872;2023-07-08T06:38:26;6.03;;;3.70;;
13805;SDS011;6974;53.606;9.872;2023-07-08T06:40:52;4.53;;;3.50;;
13805;SDS011;6974;53.606;9.872;2023-07-08T06:43:19;3.80;;;3.50;;
13805;SDS011;6974;53.606;9.872;2023-07-08T06:45:46;4.60;;;3.90;;
13805;SDS011;6974;53.606;9.872;2023-07-08T06:48:14;4.57;;;3.40;;
13805;SDS011;6974;53.606;9.872;2023-07-08T06:50:41;4.67;;;3.10;;
13805;SDS011;6974;53.606;9.872;2023-07-08T06:53:09;6.50;;;3.47;;
13805;SDS011;6974;53.606;9.872;2023-07-08T06:55:36;5.73;;;4.03;;
13805;SDS011;6974;53.606;9.872;2023-07-08T06:58:02;5.87;;;3.50;;
13805;SDS011;6974;53.606;9.872;2023-07-08T07:00:31;4.30;;;3.20;;
13805;SDS011;6974;53.606;9.872;2023-07-08T07:02:58;5.40;;;3.37;;
13805;SDS011;6974;53.606;9.872;2023-07-08T07:05:26;3.80;;;3.30;;
13805;SDS011;6974;53.606;9.872;2023-07-08T07:07:53;3.90;;;3.50;;
13805;SDS011;6974;53.606;9.872;2023-07-08T07:10:21;4.17;;;3.50;;
13805;SDS011;6974;53.606;9.872;2023-07-08T07:12:49;3.60;;;3.30;;
13805;SDS011;6974;53.606;9.872;2023-07-08T07:15:16;3.63;;;3.30;;
13805;SDS011;6974;53.606;9.872;2023-07-08T07:17:42;4.67;;;3.60;;
13805;SDS011;6974;53.606;9.872;2023-07-08T07:20:10;4.10;;;3.37;;
13805;SDS011;6974;53.606;9.872;2023-07-08T07:22:39;6.50;;;3.57;;
13805;SDS011;6974;53.606;9.872;2023-07-08T07:25:06;4.27;;;3.23;;
13805;SDS011;6974;53.606;9.872;2023-07-08T07:27:33;7.37;;;3.93;;
13805;SDS011;6974;53.606;9.872;2023-07-08T07:30:00;3.93;;;3.50;;
13805;SDS011;6974;53.606;9.872;2023-07-08T07:32:28;3.53;;;3.20;;
13805;SDS011;6974;53.606;9.872;2023-07-08T07:34:57;5.90;;;3.63;;
13805;SDS011;6974;53.606;9.872;2023-07-08T07:37:24;3.40;;;3.10;;
13805;SDS011;6974;53.606;9.872;2023-07-08T07:39:53;4.67;;;3.43;;
13805;SDS011;6974;53.606;9.872;2023-07-08T07:42:20;4.63;;;3.60;;
13805;SDS011;6974;53.606;9.872;2023-07-08T07:44:47;5.27;;;3.30;;
13805;SDS011;6974;53.606;9.872;2023-07-08T07:47:13;5.87;;;3.53;;
13805;SDS011;6974;53.606;9.872;2023-07-08T07:49:40;3.50;;;3.17;;
13805;SDS011;6974;53.606;9.872;2023-07-08T07:52:07;5.33;;;3.30;;
13805;SDS011;6974;53.606;9.872;2023-07-08T07:54:35;3.60;;;3.30;;
13805;SDS011;6974;53.606;9.872;2023-07-08T07:57:04;3.43;;;3.13;;
13805;SDS011;6974;53.606;9.872;2023-07-08T07:59:31;5.30;;;3.33;;
13805;SDS011;6974;53.606;9.872;2023-07-08T08:01:58;3.40;;;3.10;;
13805;SDS011;6974;53.606;9.872;2023-07-08T08:04:25;3.93;;;3.10;;
13805;SDS011;6974;53.606;9.872;2023-07-08T08:06:52;3.50;;;3.20;;
13805;SDS011;6974;53.606;9.872;2023-07-08T08:09:18;4.00;;;3.10;;
13805;SDS011;6974;53.606;9.872;2023-07-08T08:11:45;3.83;;;3.37;;
13805;SDS011;6974;53.606;9.872;2023-07-08T08:14:14;3.83;;;3.27;;
13805;SDS011;6974;53.606;9.872;2023-07-08T08:16:41;3.53;;;3.20;;
13805;SDS011;6974;53.606;9.872;2023-07-08T08:19:08;3.80;;;3.27;;
13805;SDS011;6974;53.606;9.872;2023-07-08T08:21:35;3.30;;;3.07;;
13805;SDS011;6974;53.606;9.872;2023-07-08T08:24:02;5.17;;;3.60;;
13805;SDS011;6974;53.606;9.872;2023-07-08T08:26:29;3.60;;;3.23;;
13805;SDS011;6974;53.606;9.872;2023-07-08T08:28:56;4.77;;;3.00;;
13805;SDS011;6974;53.606;9.872;2023-07-08T08:31:24;5.47;;;3.23;;
13805;SDS011;6974;53.606;9.872;2023-07-08T08:33:51;3.90;;;3.30;;
13805;SDS011;6974;53.606;9.872;2023-07-08T08:36:18;4.60;;;3.30;;
13805;SDS011;6974;53.606;9.872;2023-07-08T08:38:45;3.27;;;2.93;;
13805;SDS011;6974;53.606;9.872;2023-07-08T08:41:13;3.07;;;2.87;;
13805;SDS011;6974;53.606;9.872;2023-07-08T08:43:41;4.63;;;3.00;;
13805;SDS011;6974;53.606;9.872;2023-07-08T08:46:10;4.90;;;3.43;;
13805;SDS011;6974;53.606;9.872;2023-07-08T08:48:49;3.33;;;3.00;;
13805;SDS011;6974;53.606;9.872;2023-07-08T08:51:22;4.10;;;2.97;;
13805;SDS011;6974;53.606;9.872;2023-07-08T08:53:53;4.27;;;3.00;;
13805;SDS011;6974;53.606;9.872;2023-07-08T08:56:24;4.97;;;3.37;;
13805;SDS011;6974;53.606;9.872;2023-07-08T08:58:55;3.50;;;3.20;;
13805;SDS011;6974;53.606;9.872;2023-07-08T09:01:30;5.03;;;3.10;;
13805;SDS011;6974;53.606;9.872;2023-07-08T09:03:59;3.60;;;3.10;;
13805;SDS011;6974;53.606;9.872;2023-07-08T09:06:30;6.60;;;3.40;;
13805;SDS011;6974;53.606;9.872;2023-07-08T09:09:00;3.27;;;2.97;;
13805;SDS011;6974;53.606;9.872;2023-07-08T09:11:40;4.80;;;3.03;;
13805;SDS011;6974;53.606;9.872;2023-07-08T09:14:15;3.37;;;2.90;;
13805;SDS011;6974;53.606;9.872;2023-07-08T09:16:52;4.90;;;2.93;;
13805;SDS011;6974;53.606;9.872;2023-07-08T09:19:26;5.30;;;3.17;;
13805;SDS011;6974;53.606;9.872;2023-07-08T09:21:58;3.57;;;3.27;;
13805;SDS011;6974;53.606;9.872;2023-07-08T09:24:29;6.47;;;3.40;;
13805;SDS011;6974;53.606;9.872;2023-07-08T09:27:08;4.17;;;3.03;;
13805;SDS011;6974;53.606;9.872;2023-07-08T09:29:35;3.37;;;3.07;;
13805;SDS011;6974;53.606;9.872;2023-07-08T09:32:10;4.13;;;3.20;;
13805;SDS011;6974;53.606;9.872;2023-07-08T09:34:43;3.43;;;2.80;;
13805;SDS011;6974;53.606;9.872;2023-07-08T09:37:21;3.50;;;3.17;;
13805;SDS011;6974;53.606;9.872;2023-07-08T09:39:54;4.20;;;3.13;;
13805;SDS011;6974;53.606;9.872;2023-07-08T09:42:24;3.20;;;2.90;;
13805;SDS011;6974;53.606;9.872;2023-07-08T09:44:54;3.77;;;3.10;;
13805;SDS011;6974;53.606;9.872;2023-07-08T09:47:23;3.20;;;2.90;;
13805;SDS011;6974;53.606;9.872;2023-07-08T09:49:54;3.33;;;3.03;;
13805;SDS011;6974;53.606;9.872;2023-07-08T09:52:22;5.10;;;3.30;;
13805;SDS011;6974;53.606;9.872;2023-07-08T09:54:49;3.67;;;3.00;;
13805;SDS011;6974;53.606;9.872;2023-07-08T09:57:22;3.37;;;3.07;;
13805;SDS011;6974;53.606;9.872;2023-07-08T09:59:56;3.30;;;3.00;;
13805;SDS011;6974;53.606;9.872;2023-07-08T10:02:29;4.53;;;3.67;;
13805;SDS011;6974;53.606;9.872;2023-07-08T10:05:00;3.33;;;3.00;;
13805;SDS011;6974;53.606;9.872;2023-07-08T10:07:33;3.80;;;3.40;;
13805;SDS011;6974;53.606;9.872;2023-07-08T10:10:02;3.10;;;2.90;;
13805;SDS011;6974;53.606;9.872;2023-07-08T10:12:33;3.27;;;2.90;;
13805;SDS011;6974;53.606;9.872;2023-07-08T10:15:05;3.30;;;3.00;;
13805;SDS011;6974;53.606;9.872;2023-07-08T10:17:38;3.07;;;2.80;;
13805;SDS011;6974;53.606;9.872;2023-07-08T10:22:41;3.50;;;3.20;;
13805;SDS011;6974;53.606;9.872;2023-07-08T10:25:16;4.40;;;3.07;;
13805;SDS011;6974;53.606;9.872;2023-07-08T10:27:54;3.50;;;3.20;;
13805;SDS011;6974;53.606;9.872;2023-07-08T10:30:26;5.03;;;3.27;;
13805;SDS011;6974;53.606;9.872;2023-07-08T10:33:01;9.73;;;5.53;;
13805;SDS011;6974;53.606;9.872;2023-07-08T10:35:50;4.23;;;3.00;;
13805;SDS011;6974;53.606;9.872;2023-07-08T10:38:35;3.50;;;2.90;;
13805;SDS011;6974;53.606;9.872;2023-07-08T10:41:11;3.30;;;3.00;;
13805;SDS011;6974;53.606;9.872;2023-07-08T10:43:45;3.37;;;2.97;;
13805;SDS011;6974;53.606;9.872;2023-07-08T10:46:24;4.83;;;3.10;;
13805;SDS011;6974;53.606;9.872;2023-07-08T10:49:03;4.37;;;3.40;;
13805;SDS011;6974;53.606;9.872;2023-07-08T10:52:02;4.60;;;3.07;;
13805;SDS011;6974;53.606;9.872;2023-07-08T10:54:46;4.93;;;2.80;;
13805;SDS011;6974;53.606;9.872;2023-07-08T10:57:35;4.40;;;3.50;;
13805;SDS011;6974;53.606;9.872;2023-07-08T11:00:16;3.63;;;3.20;;
13805;SDS011;6974;53.606;9.872;2023-07-08T11:03:10;2.93;;;2.70;;
13805;SDS011;6974;53.606;9.872;2023-07-08T11:06:02;3.70;;;3.20;;
13805;SDS011;6974;53.606;9.872;2023-07-08T11:08:37;3.50;;;3.20;;
13805;SDS011;6974;53.606;9.872;2023-07-08T11:11:09;3.83;;;3.20;;
13805;SDS011;6974;53.606;9.872;2023-07-08T11:13:49;6.40;;;2.93;;
13805;SDS011;6974;53.606;9.872;2023-07-08T11:16:20;3.33;;;2.90;;
13805;SDS011;6974;53.606;9.872;2023-07-08T11:18:51;4.07;;;3.17;;
13805;SDS011;6974;53.606;9.872;2023-07-08T11:21:23;3.50;;;3.20;;
13805;SDS011;6974;53.606;9.872;2023-07-08T11:23:54;3.67;;;3.37;;
13805;SDS011;6974;53.606;9.872;2023-07-08T11:26:27;3.47;;;3.07;;
13805;SDS011;6974;53.606;9.872;2023-07-08T11:28:58;3.93;;;3.20;;
13805;SDS011;6974;53.606;9.872;2023-07-08T11:31:27;3.30;;;3.00;;
13805;SDS011;6974;53.606;9.872;2023-07-08T11:33:57;5.53;;;3.37;;
13805;SDS011;6974;53.606;9.872;2023-07-08T11:36:25;4.63;;;3.03;;
13805;SDS011;6974;53.606;9.872;2023-07-08T11:38:55;3.87;;;3.33;;
13805;SDS011;6974;53.606;9.872;2023-07-08T11:41:23;3.50;;;3.20;;
13805;SDS011;6974;53.606;9.872;2023-07-08T11:43:56;3.70;;;3.30;;
13805;SDS011;6974;53.606;9.872;2023-07-08T11:46:24;4.10;;;3.20;;
13805;SDS011;6974;53.606;9.872;2023-07-08T11:48:54;5.50;;;3.30;;
13805;SDS011;6974;53.606;9.872;2023-07-08T11:51:23;4.97;;;4.30;;
13805;SDS011;6974;53.606;9.872;2023-07-08T11:54:01;4.00;;;3.40;;
13805;SDS011;6974;53.606;9.872;2023-07-08T11:56:46;5.07;;;2.97;;
13805;SDS011;6974;53.606;9.872;2023-07-08T11:59:16;3.40;;;3.10;;
13805;SDS011;6974;53.606;9.872;2023-07-08T12:01:46;3.50;;;3.20;;
13805;SDS011;6974;53.606;9.872;2023-07-08T12:04:25;4.90;;;3.83;;
13805;SDS011;6974;53.606;9.872;2023-07-08T12:07:06;3.40;;;3.10;;
13805;SDS011;6974;53.606;9.872;2023-07-08T12:09:43;3.80;;;2.90;;
13805;SDS011;6974;53.606;9.872;2023-07-08T12:12:16;3.50;;;3.00;;
13805;SDS011;6974;53.606;9.872;2023-07-08T12:14:47;3.50;;;3.03;;
13805;SDS011;6974;53.606;9.872;2023-07-08T12:17:15;3.50;;;3.20;;
13805;SDS011;6974;53.606;9.872;2023-07-08T12:19:43;4.03;;;3.30;;
13805;SDS011;6974;53.606;9.872;2023-07-08T12:22:13;4.47;;;3.00;;
13805;SDS011;6974;53.606;9.872;2023-07-08T12:24:41;4.40;;;3.03;;
13805;SDS011;6974;53.606;9.872;2023-07-08T12:27:09;3.47;;;3.17;;
13805;SDS011;6974;53.606;9.872;2023-07-08T12:29:40;3.70;;;3.40;;
13805;SDS011;6974;53.606;9.872;2023-07-08T12:32:08;3.87;;;3.43;;
13805;SDS011;6974;53.606;9.872;2023-07-08T12:34:39;4.37;;;3.40;;
13805;SDS011;6974;53.606;9.872;2023-07-08T12:37:09;3.83;;;3.00;;
13805;SDS011;6974;53.606;9.872;2023-07-08T12:39:40;3.70;;;3.40;;
13805;SDS011;6974;53.606;9.872;2023-07-08T12:42:10;3.70;;;3.20;;
13805;SDS011;6974;53.606;9.872;2023-07-08T12:44:38;3.33;;;3.03;;
13805;SDS011;6974;53.606;9.872;2023-07-08T12:47:09;3.40;;;3.10;;
13805;SDS011;6974;53.606;9.872;2023-07-08T12:49:36;4.53;;;3.63;;
13805;SDS011;6974;53.606;9.872;2023-07-08T12:52:03;4.07;;;2.97;;
13805;SDS011;6974;53.606;9.872;2023-07-08T12:54:30;4.93;;;3.57;;
13805;SDS011;6974;53.606;9.872;2023-07-08T12:57:00;5.07;;;3.20;;
13805;SDS011;6974;53.606;9.872;2023-07-08T12:59:27;3.50;;;3.20;;
13805;SDS011;6974;53.606;9.872;2023-07-08T13:01:55;3.80;;;3.50;;
13805;SDS011;6974;53.606;9.872;2023-07-08T13:04:22;3.20;;;2.90;;
13805;SDS011;6974;53.606;9.872;2023-07-08T13:06:49;4.70;;;3.43;;
13805;SDS011;6974;53.606;9.872;2023-07-08T13:09:23;3.90;;;3.47;;
13805;SDS011;6974;53.606;9.872;2023-07-08T13:12:01;3.60;;;3.30;;
13805;SDS011;6974;53.606;9.872;2023-07-08T13:14:32;3.70;;;3.40;;
13805;SDS011;6974;53.606;9.872;2023-07-08T13:16:59;4.00;;;3.70;;
13805;SDS011;6974;53.606;9.872;2023-07-08T13:19:26;5.17;;;3.60;;
13805;SDS011;6974;53.606;9.872;2023-07-08T13:21:54;3.77;;;3.47;;
13805;SDS011;6974;53.606;9.872;2023-07-08T13:24:21;3.40;;;3.10;;
13805;SDS011;6974;53.606;9.872;2023-07-08T13:26:48;5.53;;;3.53;;
13805;SDS011;6974;53.606;9.872;2023-07-08T13:29:18;3.97;;;3.40;;
13805;SDS011;6974;53.606;9.872;2023-07-08T13:31:47;3.90;;;3.40;;
13805;SDS011;6974;53.606;9.872;2023-07-08T13:34:16;4.00;;;3.60;;
13805;SDS011;6974;53.606;9.872;2023-07-08T13:36:45;4.77;;;3.50;;
13805;SDS011;6974;53.606;9.872;2023-07-08T13:39:19;5.57;;;3.70;;
13805;SDS011;6974;53.606;9.872;2023-07-08T13:41:49;4.03;;;3.63;;
13805;SDS011;6974;53.606;9.872;2023-07-08T13:44:18;4.60;;;3.80;;
13805;SDS011;6974;53.606;9.872;2023-07-08T13:46:45;4.37;;;3.50;;
13805;SDS011;6974;53.606;9.872;2023-07-08T13:49:20;3.80;;;3.40;;
13805;SDS011;6974;53.606;9.872;2023-07-08T13:51:48;4.77;;;3.70;;
13805;SDS011;6974;53.606;9.872;2023-07-08T13:54:19;3.73;;;3.43;;
13805;SDS011;6974;53.606;9.872;2023-07-08T13:56:47;3.33;;;2.90;;
13805;SDS011;6974;53.606;9.872;2023-07-08T13:59:19;4.80;;;3.77;;
13805;SDS011;6974;53.606;9.872;2023-07-08T14:01:48;4.57;;;3.63;;
13805;SDS011;6974;53.606;9.872;2023-07-08T14:04:19;4.03;;;3.30;;
13805;SDS011;6974;53.606;9.872;2023-07-08T14:06:47;3.70;;;3.40;;
13805;SDS011;6974;53.606;9.872;2023-07-08T14:09:15;3.90;;;3.60;;
13805;SDS011;6974;53.606;9.872;2023-07-08T14:11:44;4.80;;;3.50;;
13805;SDS011;6974;53.606;9.872;2023-07-08T14:14:12;4.33;;;3.93;;
13805;SDS011;6974;53.606;9.872;2023-07-08T14:16:41;4.67;;;4.20;;
13805;SDS011;6974;53.606;9.872;2023-07-08T14:19:12;4.90;;;3.70;;
13805;SDS011;6974;53.606;9.872;2023-07-08T14:21:42;4.67;;;3.50;;
13805;SDS011;6974;53.606;9.872;2023-07-08T14:24:10;3.67;;;3.37;;
13805;SDS011;6974;53.606;9.872;2023-07-08T14:26:39;4.13;;;3.70;;
13805;SDS011;6974;53.606;9.872;2023-07-08T14:29:08;5.13;;;3.70;;
13805;SDS011;6974;53.606;9.872;2023-07-08T14:31:35;3.93;;;3.57;;
13805;SDS011;6974;53.606;9.872;2023-07-08T14:34:04;4.10;;;3.70;;
13805;SDS011;6974;53.606;9.872;2023-07-08T14:36:33;4.40;;;3.80;;
13805;SDS011;6974;53.606;9.872;2023-07-08T14:39:00;4.73;;;3.90;;
13805;SDS011;6974;53.606;9.872;2023-07-08T14:41:30;5.37;;;3.87;;
13805;SDS011;6974;53.606;9.872;2023-07-08T14:43:57;4.87;;;3.90;;
13805;SDS011;6974;53.606;9.872;2023-07-08T14:46:24;8.07;;;4.30;;
13805;SDS011;6974;53.606;9.872;2023-07-08T14:48:51;4.27;;;3.90;;
13805;SDS011;6974;53.606;9.872;2023-07-08T14:51:19;4.13;;;3.73;;
13805;SDS011;6974;53.606;9.872;2023-07-08T14:53:46;3.70;;;3.40;;
13805;SDS011;6974;53.606;9.872;2023-07-08T14:56:13;4.90;;;4.27;;
13805;SDS011;6974;53.606;9.872;2023-07-08T14:58:43;4.20;;;3.80;;
13805;SDS011;6974;53.606;9.872;2023-07-08T15:01:13;4.20;;;3.80;;
13805;SDS011;6974;53.606;9.872;2023-07-08T15:03:44;5.57;;;4.17;;
13805;SDS011;6974;53.606;9.872;2023-07-08T15:06:11;3.97;;;3.57;;
13805;SDS011;6974;53.606;9.872;2023-07-08T15:08:40;4.30;;;3.90;;
13805;SDS011;6974;53.606;9.872;2023-07-08T15:11:08;3.70;;;3.37;;
13805;SDS011;6974;53.606;9.872;2023-07-08T15:13:37;4.10;;;3.67;;
13805;SDS011;6974;53.606;9.872;2023-07-08T15:16:04;5.70;;;3.93;;